Forside
METAR-TAF:

METAR-TAF

Lufthavne :

Bahrain, Bahrain

Breddekreds: 26-16N, længdekreds: 050-39E, højde: 2 m

Aktuelle vejr

Denne rapport blev lavet for 38 minutter siden, kl. 16:00 UTC
Vind 5 kt fra nord, varierende mellem nordvest og nordnordøst
Temperatur 31°C
Fugtighed 63%
Tryk 1013 hPa
Sigt: 7000 m
skyfri

METAR: OBBI 161600Z 35005KT 320V020 7000 SKC 31/23 Q1013 NOSIG

Tid: 19:38 (16:38 UTC)

Vejrudsigter

Denne rapport blev lavet for 5 timer og 38 minutter siden, kl. 11:00 UTC
Foreløbig gælder fra 16 på 12 UTC til 17 på 18 UTC
Vind 10 kt fra nord
Sigt: 7000 m
ændring
fra 16 på 18 UTC til 16 på 20 UTC
Vind 5 kt fra varierende retninger
Nogle få skyer i en højde af 3000 ft
ændring
fra 17 på 09 UTC til 17 på 11 UTC
Vind 10 kt fra østnordøst

TAF: OBBI 161100Z 1612/1718 35010KT 7000 NSC BECMG 1618/1620 VRB05KT FEW030 BECMG 1709/1711 07010KT

Vejrobservationer og prognoser fra mere end 4000 lufthavne (METAR og TAF).

De gule og røde prikker repræsenterer de meteorologiske stationer.

Flyt musen over at se navnet på stationen.

Så klik over at se vejr observationer og prognoser.

At skifte det kort: Klik på de grønne knapper med et sort kors for at zoome ind; på den grønne knap med en bindestreg for at zoome ud; eller på de grønne pile for tilstødende kort.


METAR-TAF: